Port Alexander, Alaska
Current Conditions -  °F | °C
As of 10:36 AM on Thursday 18 Dec 2014 (Local Time) from PAFE Reporting Station
Overcast Overcast  
Wind Chill: 29°   Ceiling: 3100
Heat Index: 37°   Visibility: 10mi
Dew Point: 36°   Wind: 14mph
Humidity: 93%   Direction: 70°ENE
Pressure: 29.44"   Gusts: 22mph
Location:  56.25°N, 134.65°W
Report Text: PAFE 181936Z AUTO 07012G19KT 10SM OVC031 03/02 A2944 RMK AO1
Loading
Personal Weather Stations






























Interactive Weather Map New forecast layout! Learn more

10-Day Weather Forecast

Advertisements
Track Severe Weather on mobile